createdAt,value
2023-01-02T00:00:20.925Z,58.99
2023-01-02T00:02:43.021Z,59.81
2023-01-02T00:05:05.069Z,59.99
2023-01-02T00:07:26.523Z,60.97
2023-01-02T00:09:47.954Z,60.18
2023-01-02T00:12:09.405Z,60.10
2023-01-02T00:14:30.826Z,59.38
2023-01-02T00:16:52.285Z,59.15
2023-01-02T00:19:13.816Z,58.33
2023-01-02T00:21:35.427Z,58.04
2023-01-02T00:23:56.879Z,58.04
2023-01-02T00:26:18.394Z,58.04
2023-01-02T00:28:39.895Z,58.04
2023-01-02T00:31:13.562Z,57.62
2023-01-02T00:33:36.387Z,57.91
2023-01-02T00:35:57.855Z,56.63
2023-01-02T00:38:19.419Z,56.14
2023-01-02T00:40:41.683Z,55.89
2023-01-02T00:43:03.205Z,56.22
2023-01-02T00:45:24.676Z,56.92
2023-01-02T00:47:46.195Z,57.02
2023-01-02T00:50:08.041Z,56.71
2023-01-02T00:52:29.514Z,57.03
2023-01-02T00:54:50.957Z,56.82
2023-01-02T00:57:12.440Z,56.33
2023-01-02T00:59:34.189Z,56.45
2023-01-02T01:01:55.727Z,56.29
2023-01-02T01:04:17.322Z,55.78
2023-01-02T01:06:38.837Z,56.72
2023-01-02T01:09:00.525Z,56.45
2023-01-02T01:11:21.977Z,56.79
2023-01-02T01:13:44.322Z,56.36
2023-01-02T01:16:08.500Z,56.79
2023-01-02T01:18:30.003Z,56.85
2023-01-02T01:20:51.434Z,56.67
2023-01-02T01:23:12.933Z,57.06
2023-01-02T01:25:36.614Z,56.97
2023-01-02T01:27:58.067Z,57.51
2023-01-02T01:30:19.634Z,57.88
2023-01-02T01:32:41.113Z,58.44
2023-01-02T01:35:02.646Z,59.48
2023-01-02T01:37:24.371Z,60.14
2023-01-02T01:39:45.802Z,60.27
2023-01-02T01:42:12.662Z,61.95
2023-01-02T01:44:46.089Z,61.19
2023-01-02T01:47:17.547Z,61.20
2023-01-02T01:49:39.034Z,61.72
2023-01-02T01:52:07.789Z,62.30
2023-01-02T01:54:44.041Z,62.50
2023-01-02T01:57:19.612Z,62.28
2023-01-02T01:59:41.591Z,62.74
2023-01-02T02:02:03.180Z,63.06
2023-01-02T02:04:26.563Z,63.33
2023-01-02T02:06:49.878Z,62.54
2023-01-02T02:09:20.522Z,63.26
2023-01-02T02:11:43.379Z,63.96
2023-01-02T02:14:05.817Z,63.51
2023-01-02T02:16:42.493Z,63.86
2023-01-02T02:19:22.045Z,64.28
2023-01-02T02:22:26.563Z,63.68
2023-01-02T02:25:22.100Z,63.95
2023-01-02T02:28:14.810Z,63.45
2023-01-02T02:30:42.454Z,64.03
2023-01-02T02:33:25.456Z,64.80
2023-01-02T02:36:19.712Z,64.11
2023-01-02T02:39:04.817Z,64.34
2023-01-02T02:41:51.189Z,66.00
2023-01-02T02:44:40.802Z,66.90
2023-01-02T02:47:11.294Z,67.04
2023-01-02T02:50:02.480Z,67.08
2023-01-02T02:52:36.033Z,67.06
2023-01-02T02:55:15.030Z,66.18
2023-01-02T02:57:39.446Z,64.92
2023-01-02T03:00:00.924Z,64.17
2023-01-02T03:02:22.537Z,62.78
2023-01-02T03:04:51.212Z,62.10
2023-01-02T03:07:18.634Z,61.98
2023-01-02T03:09:50.683Z,59.63
2023-01-02T03:12:45.293Z,62.79
2023-01-02T03:15:24.995Z,62.37
2023-01-02T03:17:49.188Z,60.53
2023-01-02T03:20:16.019Z,59.87
2023-01-02T03:22:42.932Z,60.25
2023-01-02T03:25:06.212Z,60.81
2023-01-02T03:27:32.128Z,61.28
2023-01-02T03:30:07.660Z,59.27
2023-01-02T03:32:33.614Z,59.39
2023-01-02T03:34:55.763Z,60.41
2023-01-02T03:37:39.477Z,60.08
2023-01-02T03:40:08.726Z,59.85
2023-01-02T03:42:39.818Z,59.20
2023-01-02T03:45:24.020Z,58.86
2023-01-02T03:48:13.894Z,58.11
2023-01-02T03:50:50.191Z,59.05
2023-01-02T03:53:11.909Z,59.02
2023-01-02T03:55:36.675Z,58.21
2023-01-02T03:58:27.466Z,58.69
2023-01-02T04:00:56.050Z,58.56
2023-01-02T04:03:26.280Z,59.38
2023-01-02T04:06:14.007Z,58.82
2023-01-02T04:08:45.764Z,58.68
2023-01-02T04:11:08.889Z,58.94
2023-01-02T04:13:35.213Z,59.20
2023-01-02T04:15:58.289Z,60.00
2023-01-02T04:18:33.266Z,58.96
2023-01-02T04:21:01.579Z,59.27
2023-01-02T04:23:35.906Z,59.43
2023-01-02T04:26:15.610Z,59.06
2023-01-02T04:28:37.604Z,58.27
2023-01-02T04:31:14.019Z,58.18
2023-01-02T04:33:40.155Z,57.81
2023-01-02T04:36:08.814Z,57.82
2023-01-02T04:38:30.256Z,58.49
2023-01-02T04:40:51.807Z,58.10
2023-01-02T04:43:22.423Z,56.46
2023-01-02T04:45:43.873Z,56.88
2023-01-02T04:48:05.700Z,58.80
2023-01-02T04:50:27.162Z,58.28
2023-01-02T04:52:48.615Z,56.44
2023-01-02T04:55:10.157Z,56.92
2023-01-02T04:57:32.026Z,56.49
2023-01-02T04:59:53.530Z,55.84
2023-01-02T05:02:15.086Z,56.37
2023-01-02T05:04:36.581Z,56.52
2023-01-02T05:06:58.042Z,56.24
2023-01-02T05:09:19.545Z,56.49
2023-01-02T05:11:40.978Z,56.57
2023-01-02T05:14:07.140Z,57.42
2023-01-02T05:16:29.199Z,57.21
2023-01-02T05:18:52.416Z,58.89
2023-01-02T05:21:33.111Z,59.02
2023-01-02T05:23:55.138Z,59.15
2023-01-02T05:26:17.968Z,59.29
2023-01-02T05:28:39.574Z,58.65
2023-01-02T05:31:01.054Z,59.15
2023-01-02T05:33:22.542Z,58.64
2023-01-02T05:35:43.995Z,58.94
2023-01-02T05:38:05.649Z,58.52
2023-01-02T05:40:27.253Z,59.05
2023-01-02T05:42:48.708Z,59.16
2023-01-02T05:45:10.199Z,58.85
2023-01-02T05:47:32.846Z,58.42
2023-01-02T05:49:54.307Z,57.25
2023-01-02T05:52:15.793Z,57.58
2023-01-02T05:54:37.257Z,56.86
2023-01-02T05:56:58.685Z,56.65
2023-01-02T05:59:20.154Z,56.30
2023-01-02T06:01:41.861Z,56.30
2023-01-02T06:04:03.524Z,55.46
2023-01-02T06:06:36.677Z,57.47
2023-01-02T06:09:00.070Z,56.30
2023-01-02T06:11:21.960Z,55.39
2023-01-02T06:13:43.490Z,53.45
2023-01-02T06:16:06.996Z,54.63
2023-01-02T06:18:30.151Z,53.90
2023-01-02T06:20:51.918Z,52.94
2023-01-02T06:23:13.481Z,53.30
2023-01-02T06:25:35.017Z,53.58
2023-01-02T06:27:56.497Z,52.87
2023-01-02T06:30:18.047Z,52.69
2023-01-02T06:32:39.575Z,52.45
2023-01-02T06:35:01.048Z,52.57
2023-01-02T06:37:22.523Z,51.92
2023-01-02T06:39:43.962Z,52.39
2023-01-02T06:42:05.448Z,52.40
2023-01-02T06:44:26.913Z,52.78
2023-01-02T06:46:48.337Z,52.37
2023-01-02T06:49:09.780Z,51.48
2023-01-02T06:51:31.213Z,51.56
2023-01-02T06:53:52.704Z,51.52
2023-01-02T06:56:16.867Z,51.33
2023-01-02T06:58:38.748Z,51.33
2023-01-02T07:01:05.278Z,52.15
2023-01-02T07:03:26.745Z,52.22
2023-01-02T07:05:48.168Z,52.12
2023-01-02T07:08:10.079Z,52.27
2023-01-02T07:10:31.535Z,52.04
2023-01-02T07:12:52.997Z,52.12
2023-01-02T07:15:14.467Z,51.88
2023-01-02T07:17:35.950Z,51.69
2023-01-02T07:20:01.808Z,51.95
2023-01-02T07:22:23.996Z,51.24
2023-01-02T07:24:45.442Z,51.04
2023-01-02T07:27:06.867Z,51.03
2023-01-02T07:29:28.301Z,51.17
2023-01-02T07:31:49.773Z,51.37
2023-01-02T07:34:11.301Z,51.01
2023-01-02T07:36:32.740Z,51.49
2023-01-02T07:38:56.072Z,50.78
2023-01-02T07:41:20.231Z,51.35
2023-01-02T07:43:43.400Z,51.37
2023-01-02T07:46:05.160Z,51.65
2023-01-02T07:48:28.584Z,51.25
2023-01-02T07:50:50.015Z,51.60
2023-01-02T07:53:11.531Z,52.49
2023-01-02T07:55:33.638Z,51.83
2023-01-02T07:57:55.104Z,52.18
2023-01-02T08:00:18.028Z,53.93
2023-01-02T08:02:39.656Z,53.94
2023-01-02T08:05:01.212Z,54.34
2023-01-02T08:07:23.238Z,53.42
2023-01-02T08:09:44.703Z,54.44
2023-01-02T08:12:06.196Z,53.53
2023-01-02T08:14:27.734Z,53.92
2023-01-02T08:16:49.241Z,53.66
2023-01-02T08:19:10.787Z,54.05
2023-01-02T08:21:32.243Z,53.18
2023-01-02T08:23:54.119Z,53.71
2023-01-02T08:26:15.690Z,52.57
2023-01-02T08:28:38.989Z,53.97
2023-01-02T08:31:00.770Z,52.88
2023-01-02T08:33:22.584Z,52.83
2023-01-02T08:35:44.034Z,52.19
2023-01-02T08:38:05.805Z,51.35
2023-01-02T08:40:27.263Z,51.38
2023-01-02T08:42:48.743Z,50.92
2023-01-02T08:45:11.774Z,51.53
2023-01-02T08:47:33.264Z,51.14
2023-01-02T08:49:54.703Z,50.93
2023-01-02T08:52:16.204Z,50.71
2023-01-02T08:54:37.720Z,50.25
2023-01-02T08:56:59.186Z,49.69
2023-01-02T08:59:23.615Z,50.29
2023-01-02T09:01:45.284Z,49.44
2023-01-02T09:04:12.339Z,49.39
2023-01-02T09:06:36.037Z,49.47
2023-01-02T09:08:59.480Z,49.41
2023-01-02T09:11:23.818Z,50.01
2023-01-02T09:13:45.423Z,49.54
2023-01-02T09:16:07.762Z,49.13
2023-01-02T09:18:29.699Z,50.26
2023-01-02T09:20:51.252Z,49.24
2023-01-02T09:23:12.715Z,49.15
2023-01-02T09:25:34.135Z,50.55
2023-01-02T09:27:55.621Z,49.65
2023-01-02T09:30:17.080Z,50.25
2023-01-02T09:32:38.589Z,49.75
2023-01-02T09:35:00.031Z,50.15
2023-01-02T09:37:21.533Z,49.36
2023-01-02T09:39:43.369Z,49.70
2023-01-02T09:42:08.864Z,50.33
2023-01-02T09:44:40.857Z,50.25
2023-01-02T09:47:07.457Z,50.42
2023-01-02T09:49:46.417Z,50.08
2023-01-02T09:52:13.780Z,50.13
2023-01-02T09:54:35.459Z,49.84
2023-01-02T09:57:14.858Z,50.00
2023-01-02T09:59:56.273Z,50.09
2023-01-02T10:02:22.183Z,49.99
2023-01-02T10:04:59.513Z,50.69
2023-01-02T10:07:24.566Z,50.83
2023-01-02T10:10:18.964Z,50.76
2023-01-02T10:12:45.042Z,51.46
2023-01-02T10:15:13.420Z,51.37
2023-01-02T10:17:39.240Z,51.66
2023-01-02T10:20:17.680Z,51.85
2023-01-02T10:22:47.553Z,51.69
2023-01-02T10:25:19.763Z,51.28
2023-01-02T10:27:52.982Z,51.56
2023-01-02T10:30:23.462Z,52.62
2023-01-02T10:32:51.724Z,52.29
2023-01-02T10:35:37.891Z,52.14
2023-01-02T10:37:59.727Z,51.70
2023-01-02T10:40:21.295Z,51.81
2023-01-02T10:42:43.580Z,51.43
2023-01-02T10:45:08.337Z,50.99
2023-01-02T10:47:32.904Z,51.42
2023-01-02T10:49:54.867Z,52.63
2023-01-02T10:52:32.159Z,53.08
2023-01-02T10:54:59.992Z,53.06
2023-01-02T10:57:26.486Z,53.60
2023-01-02T10:59:54.780Z,52.17
2023-01-02T11:02:31.449Z,53.65
2023-01-02T11:04:52.989Z,52.16
2023-01-02T11:07:24.909Z,52.25
2023-01-02T11:09:54.902Z,52.96
2023-01-02T11:12:16.359Z,53.86
2023-01-02T11:14:37.953Z,53.10
2023-01-02T11:17:10.169Z,53.28
2023-01-02T11:19:38.792Z,54.08
2023-01-02T11:22:00.917Z,53.98
2023-01-02T11:24:26.512Z,54.41
2023-01-02T11:26:49.947Z,53.15
2023-01-02T11:29:34.561Z,53.48
2023-01-02T11:32:00.954Z,54.06
2023-01-02T11:34:40.587Z,54.22
2023-01-02T11:37:04.934Z,55.16
2023-01-02T11:39:26.498Z,55.15
2023-01-02T11:42:35.073Z,56.60
2023-01-02T11:45:10.577Z,56.17
2023-01-02T11:47:39.256Z,57.16
2023-01-02T11:50:00.823Z,58.21
2023-01-02T11:52:31.586Z,58.10
2023-01-02T11:54:59.766Z,58.46
2023-01-02T11:57:47.286Z,59.02
2023-01-02T12:00:13.708Z,59.91
2023-01-02T12:02:42.472Z,62.20
2023-01-02T12:05:11.448Z,62.52
2023-01-02T12:07:45.843Z,63.67
2023-01-02T12:10:30.684Z,63.83
2023-01-02T12:13:11.019Z,64.30
2023-01-02T12:15:43.547Z,65.75
2023-01-02T12:18:20.601Z,67.29
2023-01-02T12:21:01.930Z,70.26
2023-01-02T12:23:59.092Z,69.82
2023-01-02T12:26:47.039Z,68.61
2023-01-02T12:29:46.700Z,69.48
2023-01-02T12:32:45.280Z,70.19
2023-01-02T12:35:31.540Z,71.86
2023-01-02T12:38:02.009Z,71.68
2023-01-02T12:40:46.896Z,74.10
2023-01-02T12:43:23.649Z,73.64
2023-01-02T12:46:02.316Z,74.33
2023-01-02T12:48:46.212Z,77.80
2023-01-02T12:51:17.730Z,76.94
2023-01-02T12:54:18.653Z,80.35
2023-01-02T12:56:43.911Z,79.78
2023-01-02T12:59:36.596Z,79.96
2023-01-02T13:02:04.285Z,81.03
2023-01-02T13:04:31.801Z,84.16
2023-01-02T13:07:01.599Z,82.98
2023-01-02T13:09:39.338Z,84.31
2023-01-02T13:12:05.358Z,86.76
2023-01-02T13:14:35.079Z,88.46
2023-01-02T13:17:15.713Z,88.52
2023-01-02T13:19:48.457Z,86.47
2023-01-02T13:22:35.910Z,87.79
2023-01-02T13:24:58.274Z,85.59
2023-01-02T13:27:19.732Z,86.59
2023-01-02T13:29:43.585Z,85.55
2023-01-02T13:32:05.157Z,86.26
2023-01-02T13:34:31.640Z,87.68
2023-01-02T13:37:12.100Z,88.81
2023-01-02T13:39:39.378Z,87.82
2023-01-02T13:42:22.446Z,87.86
2023-01-02T13:44:48.080Z,89.40
2023-01-02T13:47:37.409Z,89.35
2023-01-02T13:50:05.583Z,90.16
2023-01-02T13:52:27.171Z,89.64
2023-01-02T13:55:10.689Z,89.88
2023-01-02T13:57:32.432Z,90.86
2023-01-02T14:00:04.261Z,90.23
2023-01-02T14:02:26.965Z,91.23
2023-01-02T14:04:48.612Z,92.42
2023-01-02T14:07:25.459Z,93.21
2023-01-02T14:10:07.468Z,95.07
2023-01-02T14:12:29.168Z,95.75
2023-01-02T14:14:52.860Z,96.80
2023-01-02T14:17:45.471Z,96.58
2023-01-02T14:20:18.978Z,97.33
2023-01-02T14:22:51.192Z,97.71
2023-01-02T14:25:12.783Z,98.82
2023-01-02T14:27:36.583Z,98.31
2023-01-02T14:30:05.340Z,97.89
2023-01-02T14:32:40.986Z,99.66
2023-01-02T14:35:07.175Z,99.91
2023-01-02T14:37:42.350Z,99.32
2023-01-02T14:40:21.975Z,99.03
2023-01-02T14:43:04.891Z,100.00
2023-01-02T14:45:28.250Z,99.02
2023-01-02T14:47:58.672Z,98.71
2023-01-02T14:50:28.172Z,99.40
2023-01-02T14:52:58.972Z,99.91
2023-01-02T14:55:25.470Z,99.62
2023-01-02T14:57:49.069Z,100.00
2023-01-02T15:00:31.033Z,100.00
2023-01-02T15:03:09.669Z,99.77
2023-01-02T15:05:39.671Z,99.76
2023-01-02T15:08:03.734Z,99.76
2023-01-02T15:10:25.514Z,99.40
2023-01-02T15:13:10.960Z,99.81
2023-01-02T15:15:46.266Z,99.65
2023-01-02T15:18:22.814Z,98.63
2023-01-02T15:20:50.542Z,99.67
2023-01-02T15:23:21.278Z,100.00
2023-01-02T15:25:44.973Z,99.75
2023-01-02T15:28:21.680Z,100.00
2023-01-02T15:30:44.346Z,99.92
2023-01-02T15:33:06.804Z,99.73
2023-01-02T15:35:32.686Z,100.00
2023-01-02T15:37:54.225Z,100.00
2023-01-02T15:40:16.947Z,100.00
2023-01-02T15:42:57.194Z,100.00
2023-01-02T15:45:18.799Z,100.00
2023-01-02T15:47:45.580Z,100.00
2023-01-02T15:50:13.772Z,100.00
2023-01-02T15:52:35.564Z,100.00
2023-01-02T15:54:58.171Z,100.00
2023-01-02T15:57:24.344Z,100.00
2023-01-02T15:59:47.193Z,100.00
2023-01-02T16:02:36.771Z,100.00
2023-01-02T16:05:13.870Z,100.00
2023-01-02T16:07:37.952Z,100.00
2023-01-02T16:09:59.453Z,100.00
2023-01-02T16:12:23.102Z,100.00
2023-01-02T16:14:49.332Z,100.00
2023-01-02T16:17:21.291Z,100.00
2023-01-02T16:20:00.565Z,100.00
2023-01-02T16:22:42.533Z,100.00
2023-01-02T16:25:21.093Z,100.00
2023-01-02T16:27:48.513Z,100.00
2023-01-02T16:30:26.496Z,100.00
2023-01-02T16:32:48.597Z,100.00
2023-01-02T16:35:19.889Z,100.00
2023-01-02T16:37:53.073Z,100.00
2023-01-02T16:40:58.769Z,100.00
2023-01-02T16:43:07.778Z,100.00
2023-01-02T16:45:34.950Z,100.00
2023-01-02T16:47:57.773Z,100.00
2023-01-02T16:50:24.729Z,100.00
2023-01-02T16:52:46.559Z,100.00
2023-01-02T16:55:14.987Z,100.00
2023-01-02T16:57:36.459Z,100.00
2023-01-02T16:59:57.925Z,100.00
2023-01-02T17:02:19.389Z,100.00
2023-01-02T17:04:41.706Z,100.00
2023-01-02T17:07:03.137Z,100.00
2023-01-02T17:09:24.729Z,100.00
2023-01-02T17:11:59.992Z,100.00
2023-01-02T17:14:21.781Z,100.00
2023-01-02T17:16:43.250Z,100.00
2023-01-02T17:19:04.746Z,100.00
2023-01-02T17:21:32.336Z,100.00
2023-01-02T17:23:55.061Z,100.00
2023-01-02T17:26:16.660Z,100.00
2023-01-02T17:28:38.132Z,100.00
2023-01-02T17:30:59.700Z,100.00
2023-01-02T17:33:22.023Z,100.00
2023-01-02T17:35:45.667Z,100.00
2023-01-02T17:38:07.663Z,100.00
2023-01-02T17:40:29.508Z,100.00
2023-01-02T17:42:50.966Z,100.00
2023-01-02T17:45:12.821Z,100.00
2023-01-02T17:50:16.543Z,100.00
2023-01-02T17:52:38.504Z,100.00
2023-01-02T17:55:00.051Z,100.00
2023-01-02T17:57:21.961Z,100.00
2023-01-02T17:59:44.668Z,100.00
2023-01-02T18:02:07.153Z,100.00
2023-01-02T18:04:28.795Z,100.00
2023-01-02T18:06:50.201Z,100.00
2023-01-02T18:09:12.332Z,100.00
2023-01-02T18:11:35.185Z,100.00
2023-01-02T18:13:57.324Z,100.00
2023-01-02T18:16:22.248Z,100.00
2023-01-02T18:18:45.312Z,100.00
2023-01-02T18:21:11.977Z,100.00
2023-01-02T18:23:33.471Z,100.00
2023-01-02T18:25:54.945Z,100.00
2023-01-02T18:28:26.585Z,100.00
2023-01-02T18:30:51.716Z,100.00
2023-01-02T18:33:18.631Z,100.00
2023-01-02T18:35:57.436Z,100.00
2023-01-02T18:38:40.013Z,100.00
2023-01-02T18:41:15.963Z,100.00
2023-01-02T18:43:37.588Z,100.00
2023-01-02T18:46:09.745Z,100.00
2023-01-02T18:48:31.567Z,100.00
2023-01-02T18:51:00.065Z,100.00
2023-01-02T18:53:26.111Z,100.00
2023-01-02T18:55:47.722Z,100.00
2023-01-02T18:58:39.040Z,100.00
2023-01-02T19:01:14.878Z,100.00
2023-01-02T19:03:36.478Z,100.00
2023-01-02T19:05:58.117Z,100.00
2023-01-02T19:08:22.287Z,100.00
2023-01-02T19:10:53.373Z,100.00
2023-01-02T19:13:34.862Z,100.00
2023-01-02T19:15:59.653Z,100.00
2023-01-02T19:18:30.033Z,100.00
2023-01-02T19:21:06.821Z,100.00
2023-01-02T19:23:30.581Z,100.00
2023-01-02T19:25:53.271Z,100.00
2023-01-02T19:28:28.405Z,100.00
2023-01-02T19:30:50.418Z,100.00
2023-01-02T19:33:39.879Z,100.00
2023-01-02T19:36:03.459Z,100.00
2023-01-02T19:38:30.376Z,100.00
2023-01-02T19:40:51.930Z,100.00
2023-01-02T19:43:13.394Z,100.00
2023-01-02T19:45:35.149Z,100.00
2023-01-02T19:47:56.871Z,100.00
2023-01-02T19:50:27.534Z,100.00
2023-01-02T19:52:49.411Z,100.00
2023-01-02T19:55:12.474Z,100.00
2023-01-02T19:57:37.638Z,100.00
2023-01-02T19:59:59.188Z,100.00
2023-01-02T20:02:24.587Z,100.00
2023-01-02T20:04:48.172Z,100.00
2023-01-02T20:07:10.188Z,100.00
2023-01-02T20:09:32.031Z,100.00
2023-01-02T20:12:12.047Z,100.00
2023-01-02T20:14:33.534Z,100.00
2023-01-02T20:16:54.971Z,100.00
2023-01-02T20:19:16.507Z,100.00
2023-01-02T20:21:37.950Z,100.00
2023-01-02T20:24:01.242Z,100.00
2023-01-02T20:26:22.700Z,100.00
2023-01-02T20:28:44.190Z,100.00
2023-01-02T20:31:05.821Z,100.00
2023-01-02T20:33:27.303Z,100.00
2023-01-02T20:35:48.741Z,100.00
2023-01-02T20:38:10.201Z,100.00
2023-01-02T20:40:31.628Z,100.00
2023-01-02T20:42:53.128Z,100.00
2023-01-02T20:45:14.566Z,100.00
2023-01-02T20:47:36.528Z,100.00
2023-01-02T20:49:58.161Z,100.00
2023-01-02T20:52:20.358Z,100.00
2023-01-02T20:54:42.300Z,100.00
2023-01-02T20:57:03.934Z,100.00
2023-01-02T20:59:25.543Z,100.00
2023-01-02T21:01:47.263Z,100.00
2023-01-02T21:04:09.072Z,100.00
2023-01-02T21:06:30.522Z,100.00
2023-01-02T21:08:51.949Z,100.00
2023-01-02T21:11:13.389Z,100.00
2023-01-02T21:13:35.078Z,100.00
2023-01-02T21:15:58.016Z,100.00
2023-01-02T21:18:24.253Z,100.00
2023-01-02T21:20:48.283Z,100.00
2023-01-02T21:23:10.783Z,100.00
2023-01-02T21:25:32.289Z,100.00
2023-01-02T21:27:53.810Z,100.00
2023-01-02T21:30:15.357Z,100.00
2023-01-02T21:32:36.844Z,100.00
2023-01-02T21:34:58.256Z,100.00
2023-01-02T21:37:19.717Z,100.00
2023-01-02T21:39:41.205Z,100.00
2023-01-02T21:42:17.915Z,100.00
2023-01-02T21:44:39.384Z,100.00
2023-01-02T21:47:00.991Z,100.00
2023-01-02T21:49:22.554Z,100.00
2023-01-02T21:51:44.390Z,100.00
2023-01-02T21:54:05.886Z,100.00
2023-01-02T21:56:27.495Z,100.00
2023-01-02T21:58:48.954Z,100.00
2023-01-02T22:01:10.505Z,100.00
2023-01-02T22:03:32.081Z,100.00
2023-01-02T22:05:53.850Z,100.00
2023-01-02T22:08:15.324Z,100.00
2023-01-02T22:10:36.927Z,100.00
2023-01-02T22:12:58.796Z,100.00
2023-01-02T22:15:21.897Z,100.00
2023-01-02T22:17:43.340Z,100.00
2023-01-02T22:20:05.242Z,100.00
2023-01-02T22:22:26.955Z,100.00
2023-01-02T22:24:49.491Z,100.00
2023-01-02T22:27:14.408Z,100.00
2023-01-02T22:30:09.615Z,100.00
2023-01-02T22:32:18.573Z,100.00
2023-01-02T22:34:43.653Z,100.00
2023-01-02T22:37:05.518Z,100.00
2023-01-02T22:39:28.585Z,100.00
2023-01-02T22:42:48.929Z,100.00
2023-01-02T22:44:55.575Z,100.00
2023-01-02T22:47:30.198Z,100.00
2023-01-02T22:49:51.938Z,100.00
2023-01-02T22:52:13.548Z,100.00
2023-01-02T22:54:35.001Z,100.00
2023-01-02T22:56:56.492Z,100.00
2023-01-02T22:59:17.980Z,100.00
2023-01-02T23:01:41.442Z,100.00
2023-01-02T23:04:03.401Z,100.00
2023-01-02T23:06:25.252Z,100.00
2023-01-02T23:08:46.772Z,100.00
2023-01-02T23:11:09.416Z,100.00
2023-01-02T23:13:32.768Z,100.00
2023-01-02T23:16:13.170Z,100.00
2023-01-02T23:18:56.965Z,100.00
2023-01-02T23:21:18.741Z,100.00
2023-01-02T23:23:40.502Z,100.00
2023-01-02T23:26:04.939Z,100.00
2023-01-02T23:28:56.867Z,99.99
2023-01-02T23:31:07.823Z,99.96
2023-01-02T23:33:29.284Z,99.21
2023-01-02T23:35:51.757Z,98.25
2023-01-02T23:38:13.261Z,96.76
2023-01-02T23:40:34.743Z,95.66
2023-01-02T23:42:56.221Z,95.78
2023-01-02T23:45:17.696Z,95.61
2023-01-02T23:47:39.155Z,94.76
2023-01-02T23:50:00.648Z,94.27
2023-01-02T23:52:22.312Z,94.08
2023-01-02T23:54:43.763Z,93.65
2023-01-02T23:57:05.232Z,92.93
2023-01-02T23:59:27.256Z,92.33
